sensor_id;sensor_type;location;lat;lon;timestamp;P1;durP1;ratioP1;P2;durP2;ratioP2
21729;SDS011;11027;51.030;13.812;2023-05-16T00:02:12;8.13;;;6.00;;
21729;SDS011;11027;51.030;13.812;2023-05-16T00:04:38;10.52;;;6.53;;
21729;SDS011;11027;51.030;13.812;2023-05-16T00:07:03;9.38;;;5.90;;
21729;SDS011;11027;51.030;13.812;2023-05-16T00:09:28;10.20;;;5.88;;
21729;SDS011;11027;51.030;13.812;2023-05-16T00:11:54;8.18;;;6.13;;
21729;SDS011;11027;51.030;13.812;2023-05-16T00:14:20;10.32;;;6.10;;
21729;SDS011;11027;51.030;13.812;2023-05-16T00:16:45;7.90;;;6.30;;
21729;SDS011;11027;51.030;13.812;2023-05-16T00:19:11;10.25;;;6.40;;
21729;SDS011;11027;51.030;13.812;2023-05-16T00:21:37;8.27;;;6.22;;
21729;SDS011;11027;51.030;13.812;2023-05-16T00:24:03;7.18;;;6.47;;
21729;SDS011;11027;51.030;13.812;2023-05-16T00:26:29;7.95;;;6.35;;
21729;SDS011;11027;51.030;13.812;2023-05-16T00:28:54;8.55;;;6.90;;
21729;SDS011;11027;51.030;13.812;2023-05-16T00:31:19;7.20;;;6.03;;
21729;SDS011;11027;51.030;13.812;2023-05-16T00:33:45;8.40;;;7.20;;
21729;SDS011;11027;51.030;13.812;2023-05-16T00:36:10;7.78;;;6.38;;
21729;SDS011;11027;51.030;13.812;2023-05-16T00:38:35;10.82;;;7.15;;
21729;SDS011;11027;51.030;13.812;2023-05-16T00:41:01;9.00;;;7.22;;
21729;SDS011;11027;51.030;13.812;2023-05-16T00:43:26;8.02;;;6.72;;
21729;SDS011;11027;51.030;13.812;2023-05-16T00:45:51;9.23;;;6.78;;
21729;SDS011;11027;51.030;13.812;2023-05-16T00:48:17;9.38;;;6.60;;
21729;SDS011;11027;51.030;13.812;2023-05-16T00:50:42;10.88;;;7.28;;
21729;SDS011;11027;51.030;13.812;2023-05-16T00:53:08;9.45;;;7.18;;
21729;SDS011;11027;51.030;13.812;2023-05-16T00:55:33;8.50;;;6.82;;
21729;SDS011;11027;51.030;13.812;2023-05-16T00:57:58;9.23;;;7.53;;
21729;SDS011;11027;51.030;13.812;2023-05-16T01:00:24;9.95;;;7.65;;
21729;SDS011;11027;51.030;13.812;2023-05-16T01:02:49;9.57;;;7.45;;
21729;SDS011;11027;51.030;13.812;2023-05-16T01:05:17;11.65;;;7.18;;
21729;SDS011;11027;51.030;13.812;2023-05-16T01:07:43;8.98;;;6.78;;
21729;SDS011;11027;51.030;13.812;2023-05-16T01:10:09;10.70;;;7.43;;
21729;SDS011;11027;51.030;13.812;2023-05-16T01:15:22;8.60;;;7.15;;
21729;SDS011;11027;51.030;13.812;2023-05-16T01:17:54;8.55;;;7.15;;
21729;SDS011;11027;51.030;13.812;2023-05-16T01:28:36;8.60;;;7.75;;
21729;SDS011;11027;51.030;13.812;2023-05-16T01:31:04;10.63;;;8.13;;
21729;SDS011;11027;51.030;13.812;2023-05-16T01:33:29;9.27;;;7.78;;
21729;SDS011;11027;51.030;13.812;2023-05-16T01:35:58;14.05;;;7.95;;
21729;SDS011;11027;51.030;13.812;2023-05-16T01:38:42;8.38;;;7.28;;
21729;SDS011;11027;51.030;13.812;2023-05-16T01:41:16;11.25;;;8.02;;
21729;SDS011;11027;51.030;13.812;2023-05-16T01:43:48;8.90;;;7.88;;
21729;SDS011;11027;51.030;13.812;2023-05-16T01:46:20;9.85;;;8.18;;
21729;SDS011;11027;51.030;13.812;2023-05-16T01:48:52;11.38;;;8.30;;
21729;SDS011;11027;51.030;13.812;2023-05-16T01:51:21;9.77;;;7.95;;
21729;SDS011;11027;51.030;13.812;2023-05-16T01:53:51;9.77;;;7.90;;
21729;SDS011;11027;51.030;13.812;2023-05-16T01:56:25;9.73;;;8.63;;
21729;SDS011;11027;51.030;13.812;2023-05-16T01:58:53;9.80;;;7.88;;
21729;SDS011;11027;51.030;13.812;2023-05-16T02:01:19;9.57;;;8.38;;
21729;SDS011;11027;51.030;13.812;2023-05-16T02:03:44;9.80;;;8.50;;
21729;SDS011;11027;51.030;13.812;2023-05-16T02:06:10;8.77;;;7.90;;
21729;SDS011;11027;51.030;13.812;2023-05-16T02:08:35;12.18;;;8.27;;
21729;SDS011;11027;51.030;13.812;2023-05-16T02:11:00;11.77;;;8.57;;
21729;SDS011;11027;51.030;13.812;2023-05-16T02:13:25;11.02;;;9.20;;
21729;SDS011;11027;51.030;13.812;2023-05-16T02:15:51;10.57;;;9.07;;
21729;SDS011;11027;51.030;13.812;2023-05-16T02:18:16;14.50;;;8.98;;
21729;SDS011;11027;51.030;13.812;2023-05-16T02:20:42;12.52;;;9.23;;
21729;SDS011;11027;51.030;13.812;2023-05-16T02:23:07;12.85;;;8.90;;
21729;SDS011;11027;51.030;13.812;2023-05-16T02:25:33;9.35;;;8.35;;
21729;SDS011;11027;51.030;13.812;2023-05-16T02:27:58;10.15;;;8.52;;
21729;SDS011;11027;51.030;13.812;2023-05-16T02:30:23;11.35;;;9.07;;
21729;SDS011;11027;51.030;13.812;2023-05-16T02:32:48;14.27;;;8.45;;
21729;SDS011;11027;51.030;13.812;2023-05-16T02:35:14;12.40;;;8.85;;
21729;SDS011;11027;51.030;13.812;2023-05-16T02:37:40;10.63;;;9.02;;
21729;SDS011;11027;51.030;13.812;2023-05-16T02:40:05;11.70;;;9.13;;
21729;SDS011;11027;51.030;13.812;2023-05-16T02:42:32;9.85;;;8.70;;
21729;SDS011;11027;51.030;13.812;2023-05-16T02:44:57;12.55;;;8.73;;
21729;SDS011;11027;51.030;13.812;2023-05-16T02:47:22;9.85;;;8.38;;
21729;SDS011;11027;51.030;13.812;2023-05-16T02:49:48;9.43;;;8.43;;
21729;SDS011;11027;51.030;13.812;2023-05-16T02:52:13;9.85;;;8.82;;
21729;SDS011;11027;51.030;13.812;2023-05-16T02:54:38;16.50;;;9.57;;
21729;SDS011;11027;51.030;13.812;2023-05-16T02:57:04;10.73;;;8.45;;
21729;SDS011;11027;51.030;13.812;2023-05-16T02:59:29;10.95;;;9.30;;
21729;SDS011;11027;51.030;13.812;2023-05-16T03:01:54;11.95;;;8.48;;
21729;SDS011;11027;51.030;13.812;2023-05-16T03:04:19;10.43;;;8.95;;
21729;SDS011;11027;51.030;13.812;2023-05-16T03:06:45;11.10;;;8.73;;
21729;SDS011;11027;51.030;13.812;2023-05-16T03:09:10;10.48;;;9.38;;
21729;SDS011;11027;51.030;13.812;2023-05-16T03:11:36;11.82;;;9.00;;
21729;SDS011;11027;51.030;13.812;2023-05-16T03:14:01;9.93;;;8.93;;
21729;SDS011;11027;51.030;13.812;2023-05-16T03:16:27;12.88;;;9.25;;
21729;SDS011;11027;51.030;13.812;2023-05-16T03:18:52;11.35;;;9.75;;
21729;SDS011;11027;51.030;13.812;2023-05-16T03:21:17;10.65;;;9.65;;
21729;SDS011;11027;51.030;13.812;2023-05-16T03:23:43;12.93;;;10.05;;
21729;SDS011;11027;51.030;13.812;2023-05-16T03:26:08;13.27;;;10.68;;
21729;SDS011;11027;51.030;13.812;2023-05-16T03:28:33;13.65;;;10.40;;
21729;SDS011;11027;51.030;13.812;2023-05-16T03:30:59;11.85;;;10.60;;
21729;SDS011;11027;51.030;13.812;2023-05-16T03:33:24;13.40;;;10.85;;
21729;SDS011;11027;51.030;13.812;2023-05-16T03:35:50;12.38;;;10.65;;
21729;SDS011;11027;51.030;13.812;2023-05-16T03:38:16;11.57;;;10.23;;
21729;SDS011;11027;51.030;13.812;2023-05-16T03:40:41;15.13;;;10.18;;
21729;SDS011;11027;51.030;13.812;2023-05-16T03:43:07;14.40;;;10.90;;
21729;SDS011;11027;51.030;13.812;2023-05-16T03:45:32;11.38;;;10.27;;
21729;SDS011;11027;51.030;13.812;2023-05-16T03:47:57;14.43;;;10.77;;
21729;SDS011;11027;51.030;13.812;2023-05-16T03:50:23;11.75;;;10.55;;
21729;SDS011;11027;51.030;13.812;2023-05-16T03:52:48;13.60;;;10.32;;
21729;SDS011;11027;51.030;13.812;2023-05-16T03:55:13;13.23;;;10.98;;
21729;SDS011;11027;51.030;13.812;2023-05-16T03:57:39;14.23;;;10.18;;
21729;SDS011;11027;51.030;13.812;2023-05-16T04:00:06;12.80;;;10.02;;
21729;SDS011;11027;51.030;13.812;2023-05-16T04:02:32;12.15;;;10.85;;
21729;SDS011;11027;51.030;13.812;2023-05-16T04:04:58;16.85;;;10.25;;
21729;SDS011;11027;51.030;13.812;2023-05-16T04:07:23;13.32;;;10.75;;
21729;SDS011;11027;51.030;13.812;2023-05-16T04:09:48;13.18;;;10.48;;
21729;SDS011;11027;51.030;13.812;2023-05-16T04:12:14;13.02;;;9.98;;
21729;SDS011;11027;51.030;13.812;2023-05-16T04:14:39;12.45;;;10.65;;
21729;SDS011;11027;51.030;13.812;2023-05-16T04:17:04;11.80;;;9.80;;
21729;SDS011;11027;51.030;13.812;2023-05-16T04:19:30;14.52;;;10.77;;
21729;SDS011;11027;51.030;13.812;2023-05-16T04:21:55;16.25;;;10.73;;
21729;SDS011;11027;51.030;13.812;2023-05-16T04:24:21;15.82;;;10.63;;
21729;SDS011;11027;51.030;13.812;2023-05-16T04:26:50;12.80;;;10.73;;
21729;SDS011;11027;51.030;13.812;2023-05-16T04:29:15;17.02;;;11.10;;
21729;SDS011;11027;51.030;13.812;2023-05-16T04:31:41;12.20;;;10.90;;
21729;SDS011;11027;51.030;13.812;2023-05-16T04:34:06;16.27;;;11.32;;
21729;SDS011;11027;51.030;13.812;2023-05-16T04:36:31;11.23;;;9.77;;
21729;SDS011;11027;51.030;13.812;2023-05-16T04:38:59;15.40;;;10.95;;
21729;SDS011;11027;51.030;13.812;2023-05-16T04:41:24;15.80;;;11.07;;
21729;SDS011;11027;51.030;13.812;2023-05-16T04:43:49;16.48;;;10.82;;
21729;SDS011;11027;51.030;13.812;2023-05-16T04:46:15;12.30;;;11.10;;
21729;SDS011;11027;51.030;13.812;2023-05-16T04:48:41;13.82;;;10.60;;
21729;SDS011;11027;51.030;13.812;2023-05-16T04:51:06;12.27;;;10.88;;
21729;SDS011;11027;51.030;13.812;2023-05-16T04:53:31;13.23;;;10.77;;
21729;SDS011;11027;51.030;13.812;2023-05-16T04:55:57;12.23;;;10.70;;
21729;SDS011;11027;51.030;13.812;2023-05-16T04:58:23;12.52;;;10.80;;
21729;SDS011;11027;51.030;13.812;2023-05-16T05:00:50;16.20;;;11.45;;
21729;SDS011;11027;51.030;13.812;2023-05-16T05:03:15;13.60;;;11.35;;
21729;SDS011;11027;51.030;13.812;2023-05-16T05:05:41;15.65;;;10.80;;
21729;SDS011;11027;51.030;13.812;2023-05-16T05:08:07;15.23;;;11.13;;
21729;SDS011;11027;51.030;13.812;2023-05-16T05:10:32;14.52;;;11.23;;
21729;SDS011;11027;51.030;13.812;2023-05-16T05:12:57;13.55;;;11.05;;
21729;SDS011;11027;51.030;13.812;2023-05-16T05:15:22;13.63;;;11.02;;
21729;SDS011;11027;51.030;13.812;2023-05-16T05:17:48;14.00;;;10.85;;
21729;SDS011;11027;51.030;13.812;2023-05-16T05:20:13;14.32;;;11.85;;
21729;SDS011;11027;51.030;13.812;2023-05-16T05:22:38;14.15;;;11.30;;
21729;SDS011;11027;51.030;13.812;2023-05-16T05:25:04;14.75;;;12.43;;
21729;SDS011;11027;51.030;13.812;2023-05-16T05:27:29;18.98;;;12.55;;
21729;SDS011;11027;51.030;13.812;2023-05-16T05:29:55;16.65;;;12.18;;
21729;SDS011;11027;51.030;13.812;2023-05-16T05:32:20;14.73;;;12.07;;
21729;SDS011;11027;51.030;13.812;2023-05-16T05:34:45;16.92;;;13.10;;
21729;SDS011;11027;51.030;13.812;2023-05-16T05:37:11;15.02;;;12.90;;
21729;SDS011;11027;51.030;13.812;2023-05-16T05:39:36;18.60;;;13.20;;
21729;SDS011;11027;51.030;13.812;2023-05-16T05:42:01;18.85;;;13.32;;
21729;SDS011;11027;51.030;13.812;2023-05-16T05:44:29;16.13;;;13.85;;
21729;SDS011;11027;51.030;13.812;2023-05-16T05:46:54;17.13;;;13.43;;
21729;SDS011;11027;51.030;13.812;2023-05-16T05:49:21;18.98;;;13.38;;
21729;SDS011;11027;51.030;13.812;2023-05-16T05:51:47;18.13;;;14.68;;
21729;SDS011;11027;51.030;13.812;2023-05-16T05:54:15;19.67;;;14.35;;
21729;SDS011;11027;51.030;13.812;2023-05-16T05:56:41;21.42;;;15.13;;
21729;SDS011;11027;51.030;13.812;2023-05-16T05:59:06;21.90;;;17.20;;
21729;SDS011;11027;51.030;13.812;2023-05-16T06:01:31;19.80;;;17.00;;
21729;SDS011;11027;51.030;13.812;2023-05-16T06:03:56;22.95;;;16.70;;
21729;SDS011;11027;51.030;13.812;2023-05-16T06:06:22;20.38;;;16.75;;
21729;SDS011;11027;51.030;13.812;2023-05-16T06:08:47;23.77;;;16.30;;
21729;SDS011;11027;51.030;13.812;2023-05-16T06:11:12;18.65;;;16.55;;
21729;SDS011;11027;51.030;13.812;2023-05-16T06:13:38;19.70;;;17.70;;
21729;SDS011;11027;51.030;13.812;2023-05-16T06:16:03;21.17;;;17.02;;
21729;SDS011;11027;51.030;13.812;2023-05-16T06:18:28;26.55;;;17.67;;
21729;SDS011;11027;51.030;13.812;2023-05-16T06:20:54;22.05;;;16.73;;
21729;SDS011;11027;51.030;13.812;2023-05-16T06:23:19;25.40;;;17.48;;
21729;SDS011;11027;51.030;13.812;2023-05-16T06:25:45;20.33;;;18.23;;
21729;SDS011;11027;51.030;13.812;2023-05-16T06:28:10;30.13;;;19.50;;
21729;SDS011;11027;51.030;13.812;2023-05-16T06:30:35;25.65;;;18.65;;
21729;SDS011;11027;51.030;13.812;2023-05-16T06:33:01;23.38;;;19.73;;
21729;SDS011;11027;51.030;13.812;2023-05-16T06:35:26;26.08;;;20.73;;
21729;SDS011;11027;51.030;13.812;2023-05-16T06:37:51;27.70;;;21.10;;
21729;SDS011;11027;51.030;13.812;2023-05-16T06:40:16;34.55;;;23.63;;
21729;SDS011;11027;51.030;13.812;2023-05-16T06:42:42;33.75;;;25.63;;
21729;SDS011;11027;51.030;13.812;2023-05-16T06:45:07;31.40;;;26.08;;
21729;SDS011;11027;51.030;13.812;2023-05-16T06:47:33;29.00;;;25.15;;
21729;SDS011;11027;51.030;13.812;2023-05-16T06:49:58;32.28;;;26.95;;
21729;SDS011;11027;51.030;13.812;2023-05-16T06:52:23;29.75;;;26.58;;
21729;SDS011;11027;51.030;13.812;2023-05-16T06:54:49;32.78;;;26.95;;
21729;SDS011;11027;51.030;13.812;2023-05-16T06:57:14;35.65;;;26.88;;
21729;SDS011;11027;51.030;13.812;2023-05-16T06:59:40;38.28;;;28.75;;
21729;SDS011;11027;51.030;13.812;2023-05-16T07:02:05;36.20;;;28.67;;
21729;SDS011;11027;51.030;13.812;2023-05-16T07:04:31;37.58;;;28.13;;
21729;SDS011;11027;51.030;13.812;2023-05-16T07:06:56;36.95;;;28.83;;
21729;SDS011;11027;51.030;13.812;2023-05-16T07:09:21;38.17;;;28.88;;
21729;SDS011;11027;51.030;13.812;2023-05-16T07:11:47;34.17;;;28.73;;
21729;SDS011;11027;51.030;13.812;2023-05-16T07:14:12;42.83;;;28.42;;
21729;SDS011;11027;51.030;13.812;2023-05-16T07:16:37;35.30;;;27.55;;
21729;SDS011;11027;51.030;13.812;2023-05-16T07:19:03;31.40;;;25.27;;
21729;SDS011;11027;51.030;13.812;2023-05-16T07:21:28;29.10;;;23.38;;
21729;SDS011;11027;51.030;13.812;2023-05-16T07:23:53;29.83;;;24.92;;
21729;SDS011;11027;51.030;13.812;2023-05-16T07:26:19;29.23;;;21.63;;
21729;SDS011;11027;51.030;13.812;2023-05-16T07:28:47;23.17;;;19.48;;
21729;SDS011;11027;51.030;13.812;2023-05-16T07:31:13;23.17;;;18.70;;
21729;SDS011;11027;51.030;13.812;2023-05-16T07:33:38;23.80;;;16.38;;
21729;SDS011;11027;51.030;13.812;2023-05-16T07:36:03;21.35;;;16.67;;
21729;SDS011;11027;51.030;13.812;2023-05-16T07:38:29;21.48;;;16.77;;
21729;SDS011;11027;51.030;13.812;2023-05-16T07:40:54;26.50;;;16.50;;
21729;SDS011;11027;51.030;13.812;2023-05-16T07:43:20;26.20;;;17.02;;
21729;SDS011;11027;51.030;13.812;2023-05-16T07:45:45;18.77;;;15.68;;
21729;SDS011;11027;51.030;13.812;2023-05-16T07:48:10;26.13;;;16.65;;
21729;SDS011;11027;51.030;13.812;2023-05-16T07:50:35;25.08;;;16.92;;
21729;SDS011;11027;51.030;13.812;2023-05-16T07:53:01;18.83;;;16.17;;
21729;SDS011;11027;51.030;13.812;2023-05-16T07:55:26;25.30;;;15.48;;
21729;SDS011;11027;51.030;13.812;2023-05-16T07:57:51;20.60;;;15.15;;
21729;SDS011;11027;51.030;13.812;2023-05-16T08:00:17;22.67;;;15.00;;
21729;SDS011;11027;51.030;13.812;2023-05-16T08:02:43;19.35;;;15.57;;
21729;SDS011;11027;51.030;13.812;2023-05-16T08:05:08;19.70;;;14.40;;
21729;SDS011;11027;51.030;13.812;2023-05-16T08:07:33;22.33;;;16.00;;
21729;SDS011;11027;51.030;13.812;2023-05-16T08:09:59;20.30;;;14.77;;
21729;SDS011;11027;51.030;13.812;2023-05-16T08:12:24;19.13;;;14.43;;
21729;SDS011;11027;51.030;13.812;2023-05-16T08:14:51;19.42;;;14.82;;
21729;SDS011;11027;51.030;13.812;2023-05-16T08:17:16;21.20;;;14.65;;
21729;SDS011;11027;51.030;13.812;2023-05-16T08:19:41;20.10;;;14.40;;
21729;SDS011;11027;51.030;13.812;2023-05-16T08:22:07;17.90;;;13.90;;
21729;SDS011;11027;51.030;13.812;2023-05-16T08:24:33;17.60;;;13.48;;
21729;SDS011;11027;51.030;13.812;2023-05-16T08:26:58;15.57;;;13.00;;
21729;SDS011;11027;51.030;13.812;2023-05-16T08:29:24;15.45;;;12.25;;
21729;SDS011;11027;51.030;13.812;2023-05-16T08:31:49;19.40;;;12.55;;
21729;SDS011;11027;51.030;13.812;2023-05-16T08:34:15;16.90;;;12.25;;
21729;SDS011;11027;51.030;13.812;2023-05-16T08:36:40;13.13;;;11.15;;
21729;SDS011;11027;51.030;13.812;2023-05-16T08:39:05;14.95;;;11.77;;
21729;SDS011;11027;51.030;13.812;2023-05-16T08:41:31;16.17;;;11.45;;
21729;SDS011;11027;51.030;13.812;2023-05-16T08:43:56;16.77;;;11.50;;
21729;SDS011;11027;51.030;13.812;2023-05-16T08:46:22;20.00;;;11.13;;
21729;SDS011;11027;51.030;13.812;2023-05-16T08:48:50;15.68;;;10.80;;
21729;SDS011;11027;51.030;13.812;2023-05-16T08:51:17;13.40;;;11.25;;
21729;SDS011;11027;51.030;13.812;2023-05-16T08:53:44;16.80;;;11.30;;
21729;SDS011;11027;51.030;13.812;2023-05-16T08:56:18;15.10;;;10.40;;
21729;SDS011;11027;51.030;13.812;2023-05-16T08:58:46;14.13;;;10.48;;
21729;SDS011;11027;51.030;13.812;2023-05-16T09:01:12;14.30;;;10.95;;
21729;SDS011;11027;51.030;13.812;2023-05-16T09:03:38;13.75;;;10.70;;
21729;SDS011;11027;51.030;13.812;2023-05-16T09:06:10;15.85;;;10.50;;
21729;SDS011;11027;51.030;13.812;2023-05-16T09:08:35;14.70;;;11.07;;
21729;SDS011;11027;51.030;13.812;2023-05-16T09:11:01;14.38;;;10.48;;
21729;SDS011;11027;51.030;13.812;2023-05-16T09:13:27;14.20;;;10.80;;
21729;SDS011;11027;51.030;13.812;2023-05-16T09:18:54;16.67;;;10.77;;
21729;SDS011;11027;51.030;13.812;2023-05-16T09:21:21;15.27;;;9.30;;
21729;SDS011;11027;51.030;13.812;2023-05-16T09:23:47;13.00;;;9.45;;
21729;SDS011;11027;51.030;13.812;2023-05-16T09:26:14;11.52;;;10.02;;
21729;SDS011;11027;51.030;13.812;2023-05-16T09:28:39;13.40;;;9.65;;
21729;SDS011;11027;51.030;13.812;2023-05-16T09:31:18;16.13;;;9.10;;
21729;SDS011;11027;51.030;13.812;2023-05-16T09:33:44;16.23;;;9.52;;
21729;SDS011;11027;51.030;13.812;2023-05-16T09:36:09;16.98;;;9.60;;
21729;SDS011;11027;51.030;13.812;2023-05-16T09:38:35;15.32;;;9.48;;
21729;SDS011;11027;51.030;13.812;2023-05-16T09:41:01;9.82;;;8.82;;
21729;SDS011;11027;51.030;13.812;2023-05-16T09:43:27;10.10;;;8.95;;
21729;SDS011;11027;51.030;13.812;2023-05-16T09:45:52;12.20;;;9.32;;
21729;SDS011;11027;51.030;13.812;2023-05-16T09:48:18;11.32;;;8.90;;
21729;SDS011;11027;51.030;13.812;2023-05-16T09:50:49;16.48;;;9.77;;
21729;SDS011;11027;51.030;13.812;2023-05-16T09:55:42;13.27;;;9.57;;
21729;SDS011;11027;51.030;13.812;2023-05-16T09:58:07;14.48;;;9.27;;
21729;SDS011;11027;51.030;13.812;2023-05-16T10:00:32;14.77;;;9.45;;
21729;SDS011;11027;51.030;13.812;2023-05-16T10:02:58;14.10;;;8.73;;
21729;SDS011;11027;51.030;13.812;2023-05-16T10:05:25;12.05;;;8.48;;
21729;SDS011;11027;51.030;13.812;2023-05-16T10:07:52;10.52;;;8.70;;
21729;SDS011;11027;51.030;13.812;2023-05-16T10:10:20;13.95;;;8.98;;
21729;SDS011;11027;51.030;13.812;2023-05-16T10:12:46;11.65;;;8.68;;
21729;SDS011;11027;51.030;13.812;2023-05-16T10:15:11;12.07;;;8.60;;
21729;SDS011;11027;51.030;13.812;2023-05-16T10:17:38;12.60;;;8.05;;
21729;SDS011;11027;51.030;13.812;2023-05-16T10:20:07;13.23;;;8.95;;
21729;SDS011;11027;51.030;13.812;2023-05-16T10:22:34;11.38;;;8.75;;
21729;SDS011;11027;51.030;13.812;2023-05-16T10:25:07;10.57;;;8.45;;
21729;SDS011;11027;51.030;13.812;2023-05-16T10:27:44;11.38;;;8.85;;
21729;SDS011;11027;51.030;13.812;2023-05-16T10:30:11;12.27;;;8.48;;
21729;SDS011;11027;51.030;13.812;2023-05-16T10:32:37;11.90;;;8.00;;
21729;SDS011;11027;51.030;13.812;2023-05-16T10:35:03;9.70;;;7.07;;
21729;SDS011;11027;51.030;13.812;2023-05-16T10:37:29;9.35;;;7.15;;
21729;SDS011;11027;51.030;13.812;2023-05-16T10:39:56;11.70;;;7.60;;
21729;SDS011;11027;51.030;13.812;2023-05-16T10:42:23;9.73;;;7.63;;
21729;SDS011;11027;51.030;13.812;2023-05-16T10:44:48;9.13;;;7.88;;
21729;SDS011;11027;51.030;13.812;2023-05-16T10:47:18;9.13;;;8.10;;
21729;SDS011;11027;51.030;13.812;2023-05-16T10:49:44;11.18;;;7.85;;
21729;SDS011;11027;51.030;13.812;2023-05-16T10:52:09;14.73;;;8.10;;
21729;SDS011;11027;51.030;13.812;2023-05-16T10:54:36;14.07;;;8.15;;
21729;SDS011;11027;51.030;13.812;2023-05-16T10:57:24;11.43;;;7.85;;
21729;SDS011;11027;51.030;13.812;2023-05-16T10:59:49;15.32;;;8.18;;
21729;SDS011;11027;51.030;13.812;2023-05-16T11:02:23;16.23;;;7.68;;
21729;SDS011;11027;51.030;13.812;2023-05-16T11:04:50;15.07;;;7.25;;
21729;SDS011;11027;51.030;13.812;2023-05-16T11:07:20;14.05;;;6.50;;
21729;SDS011;11027;51.030;13.812;2023-05-16T11:12:52;15.15;;;6.82;;
21729;SDS011;11027;51.030;13.812;2023-05-16T11:15:30;13.27;;;6.10;;
21729;SDS011;11027;51.030;13.812;2023-05-16T11:18:06;10.85;;;6.40;;
21729;SDS011;11027;51.030;13.812;2023-05-16T11:20:33;8.73;;;5.85;;
21729;SDS011;11027;51.030;13.812;2023-05-16T11:23:16;9.85;;;5.50;;
21729;SDS011;11027;51.030;13.812;2023-05-16T11:25:46;10.07;;;5.38;;
21729;SDS011;11027;51.030;13.812;2023-05-16T11:28:15;10.43;;;5.22;;
21729;SDS011;11027;51.030;13.812;2023-05-16T11:30:43;8.15;;;5.03;;
21729;SDS011;11027;51.030;13.812;2023-05-16T11:33:11;9.02;;;5.00;;
21729;SDS011;11027;51.030;13.812;2023-05-16T11:35:37;7.30;;;5.15;;
21729;SDS011;11027;51.030;13.812;2023-05-16T11:38:02;7.30;;;4.25;;
21729;SDS011;11027;51.030;13.812;2023-05-16T11:40:28;8.77;;;4.90;;
21729;SDS011;11027;51.030;13.812;2023-05-16T11:42:53;9.15;;;4.93;;
21729;SDS011;11027;51.030;13.812;2023-05-16T11:45:23;6.43;;;4.53;;
21729;SDS011;11027;51.030;13.812;2023-05-16T11:47:49;10.73;;;4.90;;
21729;SDS011;11027;51.030;13.812;2023-05-16T11:50:16;8.48;;;4.97;;
21729;SDS011;11027;51.030;13.812;2023-05-16T11:52:42;11.75;;;4.95;;
21729;SDS011;11027;51.030;13.812;2023-05-16T11:55:11;6.55;;;4.43;;
21729;SDS011;11027;51.030;13.812;2023-05-16T11:57:39;8.57;;;4.95;;
21729;SDS011;11027;51.030;13.812;2023-05-16T12:02:40;5.55;;;4.28;;
21729;SDS011;11027;51.030;13.812;2023-05-16T12:05:07;7.10;;;4.28;;
21729;SDS011;11027;51.030;13.812;2023-05-16T12:07:33;6.85;;;4.25;;
21729;SDS011;11027;51.030;13.812;2023-05-16T12:09:59;7.05;;;4.65;;
21729;SDS011;11027;51.030;13.812;2023-05-16T12:12:29;10.20;;;5.32;;
21729;SDS011;11027;51.030;13.812;2023-05-16T12:14:54;6.20;;;4.47;;
21729;SDS011;11027;51.030;13.812;2023-05-16T12:17:19;10.60;;;4.45;;
21729;SDS011;11027;51.030;13.812;2023-05-16T12:19:46;9.38;;;4.28;;
21729;SDS011;11027;51.030;13.812;2023-05-16T12:22:15;4.85;;;4.28;;
21729;SDS011;11027;51.030;13.812;2023-05-16T12:24:43;9.93;;;4.63;;
21729;SDS011;11027;51.030;13.812;2023-05-16T12:27:09;6.03;;;4.20;;
21729;SDS011;11027;51.030;13.812;2023-05-16T12:29:34;8.40;;;4.00;;
21729;SDS011;11027;51.030;13.812;2023-05-16T12:32:00;6.22;;;4.13;;
21729;SDS011;11027;51.030;13.812;2023-05-16T12:34:27;5.50;;;4.05;;
21729;SDS011;11027;51.030;13.812;2023-05-16T12:36:53;6.72;;;4.18;;
21729;SDS011;11027;51.030;13.812;2023-05-16T12:39:19;4.70;;;3.97;;
21729;SDS011;11027;51.030;13.812;2023-05-16T12:41:45;5.57;;;3.90;;
21729;SDS011;11027;51.030;13.812;2023-05-16T12:44:11;5.43;;;3.33;;
21729;SDS011;11027;51.030;13.812;2023-05-16T12:46:44;9.55;;;3.80;;
21729;SDS011;11027;51.030;13.812;2023-05-16T12:49:10;5.60;;;3.35;;
21729;SDS011;11027;51.030;13.812;2023-05-16T12:51:37;6.63;;;3.80;;
21729;SDS011;11027;51.030;13.812;2023-05-16T12:54:10;5.72;;;3.65;;
21729;SDS011;11027;51.030;13.812;2023-05-16T12:56:36;4.75;;;3.60;;
21729;SDS011;11027;51.030;13.812;2023-05-16T12:59:02;7.63;;;4.30;;
21729;SDS011;11027;51.030;13.812;2023-05-16T13:01:28;7.03;;;4.20;;
21729;SDS011;11027;51.030;13.812;2023-05-16T13:03:53;4.05;;;3.40;;
21729;SDS011;11027;51.030;13.812;2023-05-16T13:06:18;8.57;;;3.08;;
21729;SDS011;11027;51.030;13.812;2023-05-16T13:08:44;7.85;;;3.40;;
21729;SDS011;11027;51.030;13.812;2023-05-16T13:11:10;5.65;;;3.40;;
21729;SDS011;11027;51.030;13.812;2023-05-16T13:13:35;4.90;;;3.58;;
21729;SDS011;11027;51.030;13.812;2023-05-16T13:16:01;9.13;;;3.55;;
21729;SDS011;11027;51.030;13.812;2023-05-16T13:18:26;6.20;;;3.70;;
21729;SDS011;11027;51.030;13.812;2023-05-16T13:20:51;4.95;;;3.42;;
21729;SDS011;11027;51.030;13.812;2023-05-16T13:23:16;5.22;;;3.60;;
21729;SDS011;11027;51.030;13.812;2023-05-16T13:25:42;4.80;;;3.13;;
21729;SDS011;11027;51.030;13.812;2023-05-16T13:28:07;4.15;;;3.15;;
21729;SDS011;11027;51.030;13.812;2023-05-16T13:30:32;4.65;;;2.90;;
21729;SDS011;11027;51.030;13.812;2023-05-16T13:32:58;7.80;;;3.22;;
21729;SDS011;11027;51.030;13.812;2023-05-16T13:35:23;9.07;;;3.10;;
21729;SDS011;11027;51.030;13.812;2023-05-16T13:37:48;6.80;;;3.50;;
21729;SDS011;11027;51.030;13.812;2023-05-16T13:40:14;7.68;;;3.33;;
21729;SDS011;11027;51.030;13.812;2023-05-16T13:42:39;9.23;;;3.15;;
21729;SDS011;11027;51.030;13.812;2023-05-16T13:45:05;14.88;;;3.15;;
21729;SDS011;11027;51.030;13.812;2023-05-16T13:47:31;6.32;;;3.20;;
21729;SDS011;11027;51.030;13.812;2023-05-16T13:49:57;5.65;;;3.25;;
21729;SDS011;11027;51.030;13.812;2023-05-16T13:52:23;4.32;;;3.03;;
21729;SDS011;11027;51.030;13.812;2023-05-16T13:54:48;6.38;;;2.75;;
21729;SDS011;11027;51.030;13.812;2023-05-16T13:57:14;7.15;;;2.67;;
21729;SDS011;11027;51.030;13.812;2023-05-16T13:59:39;3.50;;;2.60;;
21729;SDS011;11027;51.030;13.812;2023-05-16T14:02:04;5.40;;;2.95;;
21729;SDS011;11027;51.030;13.812;2023-05-16T14:04:30;6.20;;;2.60;;
21729;SDS011;11027;51.030;13.812;2023-05-16T14:06:55;5.32;;;2.50;;
21729;SDS011;11027;51.030;13.812;2023-05-16T14:09:21;4.20;;;2.75;;
21729;SDS011;11027;51.030;13.812;2023-05-16T14:11:46;3.90;;;2.50;;
21729;SDS011;11027;51.030;13.812;2023-05-16T14:14:11;5.47;;;3.25;;
21729;SDS011;11027;51.030;13.812;2023-05-16T14:16:37;4.25;;;2.90;;
21729;SDS011;11027;51.030;13.812;2023-05-16T14:19:02;5.72;;;3.08;;
21729;SDS011;11027;51.030;13.812;2023-05-16T14:21:27;6.25;;;2.80;;
21729;SDS011;11027;51.030;13.812;2023-05-16T14:23:52;4.07;;;2.33;;
21729;SDS011;11027;51.030;13.812;2023-05-16T14:26:18;5.22;;;2.50;;
21729;SDS011;11027;51.030;13.812;2023-05-16T14:28:49;4.47;;;2.45;;
21729;SDS011;11027;51.030;13.812;2023-05-16T14:31:14;5.68;;;2.20;;
21729;SDS011;11027;51.030;13.812;2023-05-16T14:33:39;6.75;;;2.47;;
21729;SDS011;11027;51.030;13.812;2023-05-16T14:36:05;9.57;;;2.72;;
21729;SDS011;11027;51.030;13.812;2023-05-16T14:38:31;5.57;;;2.33;;